Terminal Aerodrome Forecast
Issued by NWS

Home | Current Version | Previous Version | Text Only | Print | Product List | Glossary On
Versions: 1 2 3 4 5 6 7 8 9 10 11 12 13
000
FTUS45 KABQ 290531
TAFROW
TAF
KROW 290531Z 2906/3006 36011KT P6SM VCSH BKN100
      TEMPO 2906/2908 VRB11G21KT -TSRA BKN100CB
     FM290900 01011KT P6SM BKN100
     FM292100 10009KT P6SM BKN120
     FM300500 25005KT P6SM SKC=

USA.gov is the U.S. government's official web portal to all federal, state and local government web resources and services.